Accueil
METAR-TAF:

METAR-TAF

Aéroports :

Waynesville Regional Airport at Forney Field

Fort Leonard Wood, Missouri, États-Unis

latitude: 37-44N, longitude: 092-08W, altitude: 353 m

Observation

Le bulletin a été fait il y a 18 minutes, à 21:56 UTC
Vent 14 kt de sud-est
Température 17°C
Humidité 39%
Pression 1015 hPa
Visibilité: 16.1 km
Ciel couvert à une hauteur de 20000 ft

METAR: KTBN 202156Z AUTO 14014KT 10SM OVC200 17/03 A2997 RMK AO2 SLP151 T01670027 $

Heure: 16:14 (22:14 UTC)


TAF: absent

Observations et prévisions météorologiques de plus de 4000 aéroports (messages METAR et TAF).

Les stations disponibles sont représentées par des disques jaunes et rouges sur la carte.

Passer la souris dessus pour voir le nom de la station.

Cliquer dessus pour voir les observations et prévisions météorologiques.

Pour changer de carte: cliquez sur les boutons verts avec une croix noire pour zoomer, sur le bouton vert avec un tiret pour effectuer un zoom arrière, ou sur les flèches vertes pour les cartes adjacentes.


METAR-TAF: